Time;durP1;ratioP1;P1;durP2;ratioP2;P2;SDS_P1;SDS_P2;PMS_P1;PMS_P2;Temp;Humidity;BMP_temperature;BMP_pressure;BME280_temperature;BME280_humidity;BME280_pressure;Samples;Min_cycle;Max_cycle;Signal;HPM_P1;HPM_P2
2023/01/03 00:01:17;;;;;;;3.05;2.03;;;;;;;8.99;100.00;100848.75;12196377;19;20015;-81
2023/01/03 00:05:18;;;;;;;6.47;2.28;;;;;;;8.92;100.00;100858.91;12172285;19;20034;-81
2023/01/03 00:09:22;;;;;;;5.25;2.10;;;;;;;8.84;100.00;100854.50;12194630;19;20078;-80
2023/01/03 00:13:24;;;;;;;2.88;1.65;;;;;;;8.77;100.00;100856.38;12193291;19;20042;-81
2023/01/03 00:17:26;;;;;;;3.75;2.13;;;;;;;8.70;100.00;100851.97;12175732;19;20062;-81
2023/01/03 00:21:28;;;;;;;5.53;2.15;;;;;;;8.70;100.00;100849.22;12193519;19;20038;-81
2023/01/03 00:25:30;;;;;;;4.85;2.65;;;;;;;8.72;100.00;100847.94;12197121;19;20006;-81
2023/01/03 00:29:32;;;;;;;5.00;2.20;;;;;;;8.78;100.00;100854.50;12172624;19;20026;-81
2023/01/03 00:33:35;;;;;;;4.63;2.47;;;;;;;8.85;100.00;100850.69;12194641;19;20652;-81
2023/01/03 00:37:37;;;;;;;3.88;2.03;;;;;;;8.92;100.00;100836.91;12198024;19;20006;-80
2023/01/03 00:41:39;;;;;;;4.05;2.47;;;;;;;8.96;100.00;100851.09;12170783;19;20014;-80
2023/01/03 00:45:40;;;;;;;4.70;2.58;;;;;;;8.96;100.00;100853.84;12194570;19;20051;-81
2023/01/03 00:49:42;;;;;;;3.47;2.38;;;;;;;8.98;100.00;100849.81;12190622;19;20487;-81
2023/01/03 00:53:46;;;;;;;4.35;2.50;;;;;;;9.00;100.00;100863.34;12169180;19;20712;-81
2023/01/03 00:57:47;;;;;;;4.28;2.70;;;;;;;8.97;100.00;100867.38;12191417;19;20053;-80
2023/01/03 01:01:53;;;;;;;6.03;2.67;;;;;;;8.95;100.00;100868.63;12195561;19;20006;-80
2023/01/03 01:05:55;;;;;;;5.80;2.80;;;;;;;8.97;100.00;100864.63;12187057;19;20006;-81
2023/01/03 01:09:57;;;;;;;4.45;2.72;;;;;;;8.98;100.00;100869.03;12203240;19;20007;-80
2023/01/03 01:13:59;;;;;;;5.43;2.75;;;;;;;8.94;100.00;100880.69;12204085;19;20065;-81
2023/01/03 01:18:00;;;;;;;4.47;2.83;;;;;;;8.85;100.00;100880.91;12184969;19;20386;-80
2023/01/03 01:22:03;;;;;;;8.07;2.63;;;;;;;8.84;100.00;100887.47;12211376;19;20014;-79
2023/01/03 01:26:07;;;;;;;4.05;2.50;;;;;;;8.78;100.00;100882.81;12231103;19;20010;-80
2023/01/03 01:30:08;;;;;;;4.78;2.97;;;;;;;8.72;100.00;100888.34;12224077;19;20476;-80
2023/01/03 01:34:11;;;;;;;5.18;2.70;;;;;;;8.66;100.00;100888.09;12202744;19;19998;-80
2023/01/03 01:38:12;;;;;;;5.18;2.75;;;;;;;8.61;100.00;100892.53;12180765;19;20038;-80
2023/01/03 01:46:34;;;;;;;5.57;2.47;;;;;;;8.43;100.00;100896.75;12201649;19;20031;-80
2023/01/03 01:50:44;;;;;;;5.47;2.67;;;;;;;8.35;100.00;100905.16;12176883;19;20520;-80
2023/01/03 01:54:48;;;;;;;4.95;2.70;;;;;;;8.33;100.00;100911.91;12198246;19;20734;-81
2023/01/03 01:58:51;;;;;;;6.03;3.47;;;;;;;8.30;100.00;100909.56;12204933;19;20006;-81
2023/01/03 02:02:54;;;;;;;7.45;3.15;;;;;;;8.20;100.00;100916.31;12184519;19;20006;-80
2023/01/03 02:06:56;;;;;;;4.88;2.78;;;;;;;8.07;100.00;100905.31;12243306;19;19991;-80
2023/01/03 02:11:07;;;;;;;4.95;3.20;;;;;;;7.98;100.00;100909.28;12242513;19;20031;-80
2023/01/03 02:15:57;;;;;;;6.00;2.85;;;;;;;7.86;100.00;100921.91;12179319;19;21226;-81
2023/01/03 02:20:08;;;;;;;6.10;2.97;;;;;;;7.78;100.00;100919.34;12203593;19;20069;-81
2023/01/03 02:24:29;;;;;;;6.93;2.90;;;;;;;7.66;100.00;100910.84;12179900;19;20039;-81
2023/01/03 02:28:52;;;;;;;7.45;3.13;;;;;;;7.54;100.00;100907.84;12203551;19;20007;-81
2023/01/03 02:33:38;;;;;;;6.20;3.10;;;;;;;7.43;100.00;100911.13;12180430;19;20785;-81
2023/01/03 02:37:54;;;;;;;4.97;2.92;;;;;;;7.31;100.00;100911.69;12197553;19;20480;-80
2023/01/03 02:46:30;;;;;;;5.18;3.25;;;;;;;7.20;100.00;100923.25;12199216;19;20014;-81
2023/01/03 02:50:56;;;;;;;6.45;3.75;;;;;;;7.15;100.00;100922.16;12174822;19;20045;-81
2023/01/03 02:55:04;;;;;;;6.53;3.60;;;;;;;7.11;100.00;100926.31;12196745;19;20018;-81
2023/01/03 02:59:12;;;;;;;6.28;3.35;;;;;;;7.05;100.00;100925.25;12176058;19;20002;-80
2023/01/03 03:03:19;;;;;;;6.45;3.00;;;;;;;7.01;100.00;100929.41;12194455;19;20010;-80
2023/01/03 03:07:25;;;;;;;8.13;3.42;;;;;;;6.99;100.00;100923.28;12194789;19;20083;-80
2023/01/03 03:16:17;;;;;;;6.22;3.83;;;;;;;7.01;100.00;100926.69;12197994;19;20003;-81
2023/01/03 03:24:51;;;;;;;6.80;3.47;;;;;;;6.94;100.00;100939.50;12195693;19;20007;-80
2023/01/03 03:28:58;;;;;;;7.75;3.63;;;;;;;6.90;100.00;100944.53;12198617;19;20010;-80
2023/01/03 03:33:04;;;;;;;6.20;3.63;;;;;;;6.88;100.00;100945.78;12183592;19;20002;-80
2023/01/03 03:37:15;;;;;;;12.00;3.80;;;;;;;6.90;100.00;100954.63;12238989;19;20041;-80
2023/01/03 03:46:06;;;;;;;6.32;3.78;;;;;;;6.89;100.00;100947.47;12192454;19;20034;-81
2023/01/03 03:50:16;;;;;;;8.02;3.95;;;;;;;6.87;100.00;100957.75;12171110;19;20006;-81
2023/01/03 03:54:22;;;;;;;7.82;4.13;;;;;;;6.83;100.00;100947.19;12191500;19;20003;-80
2023/01/03 03:58:31;;;;;;;7.05;3.97;;;;;;;6.79;100.00;100961.50;12190001;19;20032;-81
2023/01/03 04:02:33;;;;;;;6.28;3.83;;;;;;;6.75;100.00;100961.06;12169001;19;20022;-79
2023/01/03 04:06:47;;;;;;;6.57;3.87;;;;;;;6.74;100.00;100959.34;12195871;19;20023;-81
2023/01/03 04:10:49;;;;;;;5.38;3.47;;;;;;;6.72;100.00;100960.56;12192882;19;20006;-80
2023/01/03 04:14:51;;;;;;;8.02;4.07;;;;;;;6.68;100.00;100962.03;12167976;19;20006;-80
2023/01/03 04:18:52;;;;;;;11.13;4.90;;;;;;;6.69;100.00;100972.75;12194351;19;20002;-80
2023/01/03 04:22:54;;;;;;;8.05;3.83;;;;;;;6.70;100.00;100969.00;12192735;19;20010;-80
2023/01/03 04:26:56;;;;;;;10.30;4.40;;;;;;;6.70;100.00;100965.41;12170102;19;20152;-81
2023/01/03 04:30:57;;;;;;;6.55;4.53;;;;;;;6.67;100.00;100966.66;12194010;19;20351;-81
2023/01/03 04:34:59;;;;;;;8.18;4.10;;;;;;;6.65;100.00;100963.25;12192739;19;20018;-81
2023/01/03 04:39:01;;;;;;;9.60;4.13;;;;;;;6.63;100.00;100968.06;12183954;19;20061;-80
2023/01/03 04:47:24;;;;;;;5.93;4.05;;;;;;;6.56;100.00;100968.00;12182648;19;20031;-81
2023/01/03 04:51:27;;;;;;;9.00;4.32;;;;;;;6.51;100.00;100973.22;12202120;19;20006;-80
2023/01/03 04:55:28;;;;;;;8.55;4.13;;;;;;;6.48;100.00;100972.78;12205226;19;20030;-81
2023/01/03 04:59:30;;;;;;;7.97;4.80;;;;;;;6.47;100.00;100976.56;12180940;19;20015;-80
2023/01/03 05:03:31;;;;;;;10.43;4.68;;;;;;;6.44;100.00;100971.47;12203319;19;20010;-81
2023/01/03 05:07:33;;;;;;;9.13;4.40;;;;;;;6.39;100.00;100977.53;12203928;19;20007;-81
2023/01/03 05:11:35;;;;;;;8.93;4.50;;;;;;;6.34;100.00;100972.63;12179920;19;20022;-81
2023/01/03 05:15:38;;;;;;;9.18;5.28;;;;;;;6.28;100.00;100984.38;12213136;19;20030;-81
2023/01/03 05:28:22;;;;;;;11.57;5.35;;;;;;;6.22;100.00;100989.78;12203242;19;20353;-81
2023/01/03 05:32:24;;;;;;;8.90;4.95;;;;;;;6.21;100.00;100986.16;12178401;19;20010;-81
2023/01/03 05:36:25;;;;;;;9.15;5.25;;;;;;;6.18;100.00;100989.28;12203030;19;20030;-80
2023/01/03 05:40:27;;;;;;;11.05;5.38;;;;;;;6.16;100.00;101005.06;12199583;19;20075;-81
2023/01/03 05:44:32;;;;;;;12.23;6.07;;;;;;;6.15;100.00;100998.72;12178660;19;20002;-81
2023/01/03 05:48:34;;;;;;;9.45;5.30;;;;;;;6.12;100.00;100995.53;12202180;19;20369;-80
2023/01/03 05:52:36;;;;;;;12.00;5.27;;;;;;;6.10;100.00;100997.63;12199422;19;20002;-80
2023/01/03 05:56:38;;;;;;;12.25;5.55;;;;;;;6.09;100.00;100995.91;12178826;19;20024;-80
2023/01/03 06:00:43;;;;;;;10.57;5.22;;;;;;;6.08;100.00;100996.97;12202497;19;20011;-81
2023/01/03 06:04:47;;;;;;;12.70;5.65;;;;;;;6.05;100.00;100989.13;12202789;19;20081;-81
2023/01/03 06:08:48;;;;;;;12.02;6.22;;;;;;;6.02;100.00;100995.00;12179655;19;19999;-80
2023/01/03 06:12:50;;;;;;;11.02;5.90;;;;;;;6.00;100.00;101008.00;12199290;19;20007;-80
2023/01/03 06:21:16;;;;;;;10.93;5.65;;;;;;;5.97;100.00;101001.03;12175491;19;20051;-81
2023/01/03 06:25:17;;;;;;;11.82;6.47;;;;;;;5.94;100.00;100999.50;12200387;19;20484;-81
2023/01/03 06:29:19;;;;;;;11.23;5.55;;;;;;;5.91;100.00;101009.97;12202073;19;20007;-80
2023/01/03 06:33:22;;;;;;;12.15;6.18;;;;;;;5.89;100.00;101015.63;12232720;19;20014;-80
2023/01/03 06:37:24;;;;;;;10.73;5.27;;;;;;;5.87;100.00;101017.69;12224601;19;20002;-81
2023/01/03 06:41:26;;;;;;;11.25;6.10;;;;;;;5.85;100.00;101019.78;12196987;19;20716;-81
2023/01/03 06:54:30;;;;;;;12.88;6.15;;;;;;;5.82;100.00;101024.78;12176673;19;20010;-81
2023/01/03 06:58:32;;;;;;;13.82;4.80;;;;;;;5.80;100.00;101030.47;12195615;19;21401;-81
2023/01/03 07:02:34;;;;;;;11.70;5.88;;;;;;;5.80;100.00;101029.56;12198998;19;21313;-81
2023/01/03 07:06:37;;;;;;;15.70;6.43;;;;;;;5.78;100.00;101039.88;12177410;19;20010;-80
2023/01/03 07:10:38;;;;;;;13.98;6.47;;;;;;;5.79;100.00;101038.84;12196809;19;20007;-81
2023/01/03 07:14:43;;;;;;;17.23;6.75;;;;;;;5.76;100.00;101045.53;12197698;19;21236;-81
2023/01/03 07:18:46;;;;;;;13.45;6.05;;;;;;;5.76;100.00;101050.16;12176012;19;20014;-80
2023/01/03 07:22:55;;;;;;;13.85;6.25;;;;;;;5.78;100.00;101053.56;12195610;19;20010;-80
2023/01/03 07:27:00;;;;;;;13.68;5.95;;;;;;;5.74;100.00;101052.22;12199317;19;20847;-80
2023/01/03 07:31:05;;;;;;;13.02;5.53;;;;;;;5.73;100.00;101056.84;12173622;19;20027;-80
2023/01/03 07:35:07;;;;;;;;;;;;;;;5.74;100.00;101052.22;12199561;19;20019;-80
2023/01/03 07:39:08;;;;;;;13.80;6.25;;;;;;;5.78;100.00;101053.56;12172914;19;19911;-80
2023/01/03 07:47:34;;;;;;;11.57;5.25;;;;;;;5.78;100.00;101076.28;12195584;19;20014;-81
2023/01/03 07:51:35;;;;;;;11.25;6.32;;;;;;;5.80;100.00;101085.16;12173025;19;20030;-80
2023/01/03 07:55:38;;;;;;;10.80;5.18;;;;;;;5.82;100.00;101074.00;12197530;19;20085;-80
2023/01/03 07:59:41;;;;;;;10.68;5.47;;;;;;;5.84;100.00;101086.47;12193828;19;20030;-80
2023/01/03 08:03:44;;;;;;;9.05;5.15;;;;;;;5.89;100.00;101091.41;12172455;19;20003;-80
2023/01/03 08:07:49;;;;;;;10.68;5.00;;;;;;;5.91;100.00;101089.28;12194958;19;20010;-80
2023/01/03 08:16:13;;;;;;;10.40;5.38;;;;;;;5.91;100.00;101087.41;12175747;19;20021;-80
2023/01/03 08:20:17;;;;;;;11.27;5.80;;;;;;;5.92;100.00;101102.81;12188055;19;20010;-80
2023/01/03 08:24:19;;;;;;;8.43;5.05;;;;;;;5.92;100.00;101104.69;12180873;19;20014;-81
2023/01/03 08:28:23;;;;;;;10.57;5.35;;;;;;;5.94;100.00;101122.63;12204339;19;20014;-79
2023/01/03 08:32:25;;;;;;;13.32;5.80;;;;;;;5.98;100.00;101114.03;12255158;19;20039;-80
2023/01/03 08:36:32;;;;;;;10.90;5.30;;;;;;;6.05;100.00;101120.47;12251132;19;20059;-81
2023/01/03 08:40:38;;;;;;;10.48;5.30;;;;;;;6.12;100.00;101125.00;12215499;19;20002;-81
2023/01/03 08:44:54;;;;;;;11.95;5.28;;;;;;;6.16;100.00;101125.50;12205519;19;20038;-80
2023/01/03 08:48:56;;;;;;;11.13;5.40;;;;;;;6.23;100.00;101128.31;12178725;19;20106;-81
2023/01/03 08:52:58;;;;;;;9.50;4.63;;;;;;;6.32;100.00;101133.50;12207362;19;20013;-80
2023/01/03 08:57:00;;;;;;;10.27;5.47;;;;;;;6.45;100.00;101129.22;12208328;19;20073;-81
2023/01/03 09:01:02;;;;;;;9.50;5.13;;;;;;;6.60;100.00;101135.53;12187832;19;20106;-82
2023/01/03 09:05:05;;;;;;;12.27;5.15;;;;;;;6.75;100.00;101139.13;12210016;19;20007;-81
2023/01/03 09:09:12;;;;;;;7.97;3.97;;;;;;;6.94;100.00;101147.75;12208931;19;20017;-81
2023/01/03 09:13:18;;;;;;;8.10;4.32;;;;;;;7.21;100.00;101148.88;12187280;19;20003;-80
2023/01/03 09:17:20;;;;;;;11.90;3.97;;;;;;;7.44;100.00;101149.53;12221193;19;20010;-80
2023/01/03 09:21:23;;;;;;;9.38;4.07;;;;;;;7.59;100.00;101154.97;12197251;19;20027;-80
2023/01/03 09:25:24;;;;;;;8.00;4.68;;;;;;;7.74;100.00;101143.91;12225602;19;20007;-82
2023/01/03 09:29:30;;;;;;;7.18;3.35;;;;;;;7.82;100.00;101156.59;12208725;19;20475;-81
2023/01/03 09:33:34;;;;;;;7.20;3.22;;;;;;;7.91;100.00;101147.19;12185156;19;20010;-81
2023/01/03 09:37:36;;;;;;;5.23;3.10;;;;;;;7.98;100.00;101146.19;12205101;19;20097;-83
2023/01/03 09:41:38;;;;;;;4.60;2.93;;;;;;;8.11;100.00;101150.91;12208332;19;20504;-82
2023/01/03 09:45:50;;;;;;;7.22;2.97;;;;;;;8.23;100.00;101152.03;12190075;19;19995;-81
2023/01/03 09:49:53;;;;;;;6.75;3.33;;;;;;;8.32;100.00;101150.00;12210156;19;19999;-81
2023/01/03 10:03:53;;;;;;;9.60;3.30;;;;;;;8.80;100.00;101149.19;12189396;19;20003;-81
2023/01/03 10:08:11;;;;;;;;;;;;;;;8.91;100.00;101159.59;12210305;19;20010;-81
2023/01/03 10:12:30;;;;;;;7.97;3.58;;;;;;;9.01;100.00;101146.34;12206207;19;20247;-81
2023/01/03 10:16:53;;;;;;;7.70;3.53;;;;;;;9.13;100.00;101136.41;12185312;19;20007;-80
2023/01/03 10:21:06;;;;;;;7.82;3.75;;;;;;;9.22;100.00;101133.44;12206529;19;20468;-81
2023/01/03 10:25:09;;;;;;;6.68;3.88;;;;;;;9.31;100.00;101137.69;12187498;19;19999;-80
2023/01/03 10:29:14;;;;;;;4.95;2.45;;;;;;;9.36;100.00;101133.25;12211733;19;20007;-81
2023/01/03 10:33:31;;;;;;;7.03;3.30;;;;;;;9.47;100.00;101126.31;12210428;19;20365;-80
2023/01/03 10:37:33;;;;;;;8.23;3.78;;;;;;;9.53;100.00;101128.22;12182992;19;20078;-81
2023/01/03 10:41:47;;;;;;;7.53;4.28;;;;;;;9.57;100.00;101134.13;12207217;19;20018;-81
2023/01/03 10:45:58;;;;;;;9.27;3.90;;;;;;;9.64;100.00;101131.38;12190203;19;20018;-82
2023/01/03 10:50:04;;;;;;;6.40;2.90;;;;;;;9.65;100.00;101131.19;12202930;19;20011;-81
2023/01/03 10:54:25;;;;;;;5.22;2.70;;;;;;;9.72;100.00;101125.66;12199892;19;21388;-82
2023/01/03 10:58:27;;;;;;;5.78;3.15;;;;;;;9.73;100.00;101133.72;12173900;19;20006;-80
2023/01/03 11:02:43;;;;;;;8.77;3.65;;;;;;;9.66;100.00;101132.03;12205032;19;20118;-82
2023/01/03 11:07:02;;;;;;;9.73;3.55;;;;;;;9.77;100.00;101142.41;12187251;19;20026;-81
2023/01/03 11:11:34;;;;;;;7.07;3.57;;;;;;;9.85;100.00;101139.44;12204683;19;20014;-80
2023/01/03 11:15:38;;;;;;;9.05;3.95;;;;;;;9.91;100.00;101135.00;12187981;19;20263;-83
2023/01/03 11:19:40;;;;;;;7.57;3.13;;;;;;;9.96;100.00;101125.00;12207459;19;20007;-82
2023/01/03 11:24:16;;;;;;;8.38;3.88;;;;;;;9.90;100.00;101122.25;12204602;19;20031;-82
2023/01/03 11:28:46;;;;;;;6.05;3.63;;;;;;;9.87;100.00;101112.53;12194741;19;20058;-81
2023/01/03 11:33:23;;;;;;;7.57;3.58;;;;;;;10.12;100.00;101114.63;12204676;19;21390;-82
2023/01/03 11:38:02;;;;;;;6.53;2.92;;;;;;;10.23;100.00;101111.19;12183065;19;20045;-82
2023/01/03 11:42:10;;;;;;;8.35;3.92;;;;;;;10.39;100.00;101113.50;12240025;19;19998;-82
2023/01/03 11:46:34;;;;;;;5.60;3.47;;;;;;;10.71;100.00;101110.84;12222542;19;20006;-81
2023/01/03 11:51:06;;;;;;;8.75;4.65;;;;;;;11.36;99.76;101111.53;12203656;19;20031;-82
2023/01/03 11:55:33;;;;;;;5.25;2.95;;;;;;;11.54;94.64;101112.66;12184935;19;20026;-82
2023/01/03 11:59:55;;;;;;;5.63;3.45;;;;;;;11.74;96.09;101110.56;12198465;19;20097;-82
2023/01/03 12:04:14;;;;;;;7.20;3.40;;;;;;;11.95;92.98;101119.56;12185113;19;20006;-82
2023/01/03 12:08:43;;;;;;;4.78;3.03;;;;;;;11.84;91.23;101115.59;12201703;19;20381;-82
2023/01/03 12:13:21;;;;;;;9.85;2.70;;;;;;;11.56;89.45;101099.47;12180805;19;20029;-82
2023/01/03 12:17:43;;;;;;;4.70;2.70;;;;;;;11.25;91.36;101103.13;12204700;19;20007;-82
2023/01/03 12:21:52;;;;;;;6.80;2.90;;;;;;;11.15;93.14;101106.34;12187088;19;20369;-82
2023/01/03 12:25:58;;;;;;;4.85;2.70;;;;;;;11.05;92.48;101092.22;12204316;19;20084;-82
2023/01/03 12:30:25;;;;;;;6.38;2.70;;;;;;;11.07;92.35;101084.56;12198606;19;20338;-83
2023/01/03 12:34:33;;;;;;;6.05;2.60;;;;;;;10.99;92.44;101082.06;12178551;19;20003;-82
2023/01/03 12:38:40;;;;;;;8.52;2.97;;;;;;;10.92;92.90;101085.72;12197454;19;20050;-82
2023/01/03 12:42:55;;;;;;;5.82;2.50;;;;;;;10.81;92.80;101086.41;12175825;19;20039;-82
2023/01/03 12:46:58;;;;;;;8.27;3.47;;;;;;;10.92;93.63;101082.94;12197850;19;20003;-82
2023/01/03 12:51:02;;;;;;;4.38;2.78;;;;;;;10.92;92.60;101080.19;12199442;19;20014;-81
2023/01/03 12:55:18;;;;;;;6.95;2.70;;;;;;;10.98;93.33;101074.88;12178330;19;20010;-81
2023/01/03 12:59:38;;;;;;;5.93;2.67;;;;;;;10.98;92.78;101058.31;12210294;19;20014;-84
2023/01/03 13:03:58;;;;;;;6.70;2.85;;;;;;;10.95;93.34;101056.84;12199847;19;20023;-81
2023/01/03 13:08:05;;;;;;;8.13;2.75;;;;;;;10.95;93.42;101059.59;12214261;19;20493;-82
2023/01/03 13:12:20;;;;;;;3.55;2.53;;;;;;;10.96;93.46;101058.53;12207794;19;20010;-82
2023/01/03 13:16:48;;;;;;;5.97;2.58;;;;;;;10.92;92.82;101058.13;12186847;19;20575;-82
2023/01/03 13:20:52;;;;;;;4.22;2.25;;;;;;;10.75;92.50;101051.44;12208344;19;20010;-81
2023/01/03 13:24:54;;;;;;;5.68;2.53;;;;;;;10.75;93.88;101051.44;12188324;19;20059;-81
2023/01/03 13:29:34;;;;;;;6.65;2.25;;;;;;;10.85;94.51;101045.44;12208432;19;20010;-81
2023/01/03 13:34:08;;;;;;;4.88;2.28;;;;;;;11.00;94.45;101045.13;12209246;19;20013;-81
2023/01/03 13:38:18;;;;;;;6.22;2.53;;;;;;;11.05;93.77;101037.03;12238676;19;20111;-81
2023/01/03 13:42:31;;;;;;;3.92;1.83;;;;;;;11.02;93.46;101043.00;12190493;19;20468;-79
2023/01/03 13:46:33;;;;;;;4.88;2.72;;;;;;;10.88;93.95;101048.59;12209115;19;20009;-82
2023/01/03 13:50:36;;;;;;;4.85;2.00;;;;;;;10.81;93.61;101049.72;12208610;19;20042;-81
2023/01/03 13:54:57;;;;;;;4.68;1.77;;;;;;;10.73;93.52;101054.41;12189094;19;20010;-81
2023/01/03 13:59:13;;;;;;;8.30;2.45;;;;;;;10.61;94.52;101058.09;12209507;19;20011;-81
2023/01/03 14:04:03;;;;;;;4.47;1.75;;;;;;;10.54;95.18;101049.03;12208251;19;20357;-82
2023/01/03 14:08:35;;;;;;;5.07;2.10;;;;;;;10.47;95.45;101041.63;12108127;19;2004568;-82
2023/01/03 14:13:04;;;;;;;5.55;2.20;;;;;;;10.45;95.45;101043.75;12183541;19;20010;-82
2023/01/03 14:17:16;;;;;;;5.55;2.22;;;;;;;10.45;95.45;101042.91;12213094;19;20010;-81
2023/01/03 14:21:25;;;;;;;6.40;2.28;;;;;;;10.47;95.35;101036.13;12205134;19;20085;-81
2023/01/03 14:25:37;;;;;;;5.95;2.95;;;;;;;10.49;94.98;101044.16;12183529;19;20011;-82
2023/01/03 14:29:42;;;;;;;3.97;2.05;;;;;;;10.49;95.13;101039.47;12206418;19;20003;-82
2023/01/03 14:33:58;;;;;;;5.53;2.60;;;;;;;10.48;94.92;101037.81;12180956;19;20061;-81
2023/01/03 14:37:59;;;;;;;4.00;2.35;;;;;;;10.48;95.17;101039.72;12208388;19;20034;-81
2023/01/03 14:42:15;;;;;;;4.97;2.33;;;;;;;10.50;95.45;101045.88;12197073;19;20611;-81
2023/01/03 14:46:17;;;;;;;4.95;2.63;;;;;;;10.47;95.74;101038.88;12183179;19;20006;-82
2023/01/03 14:50:29;;;;;;;5.20;2.20;;;;;;;10.45;96.14;101048.44;12211772;19;20476;-82
2023/01/03 14:54:33;;;;;;;;;;;;;;;10.40;97.04;101049.06;12212887;19;20015;-81
2023/01/03 14:58:39;;;;;;;7.55;2.60;;;;;;;10.41;96.83;101047.16;12257680;19;19917;-81
2023/01/03 15:02:41;;;;;;;5.57;2.70;;;;;;;10.39;97.46;101052.06;12231538;19;20105;-82
2023/01/03 15:06:56;;;;;;;8.57;3.05;;;;;;;10.32;98.01;101049.34;12192463;19;20074;-82
2023/01/03 15:11:07;;;;;;;8.85;3.22;;;;;;;10.26;98.89;101051.06;12207049;19;20030;-82
2023/01/03 15:15:26;;;;;;;6.35;2.90;;;;;;;10.22;99.47;101062.66;12205021;19;20018;-83
2023/01/03 15:19:33;;;;;;;5.10;2.72;;;;;;;10.09;99.91;101074.59;12184402;19;20023;-82
2023/01/03 15:23:38;;;;;;;4.60;2.70;;;;;;;9.97;100.00;101066.13;12198685;19;20050;-82
2023/01/03 15:27:45;;;;;;;5.57;2.63;;;;;;;9.93;100.00;101075.88;12181863;19;20106;-82
2023/01/03 15:31:57;;;;;;;7.50;3.03;;;;;;;9.90;100.00;101070.78;12201267;19;20014;-82
2023/01/03 15:36:13;;;;;;;6.68;3.50;;;;;;;9.89;100.00;101082.03;12204312;19;20007;-82
2023/01/03 15:40:20;;;;;;;7.50;3.25;;;;;;;9.81;100.00;101091.34;12178917;19;20014;-82
2023/01/03 15:44:26;;;;;;;7.93;3.10;;;;;;;9.74;100.00;101085.03;12195485;19;20010;-83
2023/01/03 15:48:28;;;;;;;6.07;2.88;;;;;;;9.65;100.00;101089.91;12204210;19;20079;-82
2023/01/03 15:52:29;;;;;;;10.13;4.43;;;;;;;9.52;100.00;101093.50;12202596;19;20022;-82
2023/01/03 15:56:34;;;;;;;7.78;3.78;;;;;;;9.41;100.00;101091.38;12205025;19;20499;-82
2023/01/03 16:00:35;;;;;;;11.30;6.30;;;;;;;9.28;100.00;101096.84;12181268;19;20003;-82
2023/01/03 16:04:38;;;;;;;8.82;4.05;;;;;;;9.22;100.00;101097.69;12201238;19;20053;-82
2023/01/03 16:08:41;;;;;;;8.30;4.20;;;;;;;9.19;100.00;101099.00;12206073;19;20091;-81
2023/01/03 16:12:43;;;;;;;6.70;3.80;;;;;;;9.17;100.00;101095.59;12178975;19;20015;-82
2023/01/03 16:16:49;;;;;;;7.95;3.80;;;;;;;9.20;100.00;101097.09;12205155;19;20007;-82
2023/01/03 16:20:54;;;;;;;9.25;3.95;;;;;;;9.18;100.00;101091.78;12199770;19;20007;-82
2023/01/03 16:24:58;;;;;;;7.60;4.20;;;;;;;9.13;100.00;101092.41;12174273;19;20038;-82
2023/01/03 16:29:03;;;;;;;10.45;3.75;;;;;;;9.05;100.00;101080.78;12198651;19;20027;-81
2023/01/03 16:33:04;;;;;;;6.50;3.75;;;;;;;8.96;100.00;101090.28;12207024;19;20006;-82
2023/01/03 16:37:09;;;;;;;6.47;3.63;;;;;;;8.82;100.00;101094.88;12190072;19;20002;-82
2023/01/03 16:41:11;;;;;;;9.02;4.30;;;;;;;8.72;100.00;101098.03;12210001;19;20369;-82
2023/01/03 16:45:18;;;;;;;6.60;3.67;;;;;;;8.67;100.00;101106.03;12208046;19;20007;-82
2023/01/03 16:49:20;;;;;;;6.20;3.27;;;;;;;8.63;100.00;101102.84;12191585;19;20334;-82
2023/01/03 16:53:35;;;;;;;11.77;4.88;;;;;;;8.63;100.00;101094.59;12249244;19;20003;-82
2023/01/03 16:57:41;;;;;;;9.45;4.15;;;;;;;8.63;100.00;101096.50;12240854;19;19998;-83
2023/01/03 17:01:42;;;;;;;8.23;3.78;;;;;;;8.60;100.00;101100.50;12246807;19;20502;-82
2023/01/03 17:05:45;;;;;;;;;;;;;;;8.57;100.00;101098.19;12209791;19;19999;-81
2023/01/03 17:09:49;;;;;;;7.75;3.60;;;;;;;8.49;100.00;101101.09;12187224;19;19918;-82
2023/01/03 17:13:57;;;;;;;11.30;4.18;;;;;;;8.44;100.00;101092.63;12203231;19;20495;-81
2023/01/03 17:17:58;;;;;;;8.75;4.40;;;;;;;8.51;100.00;101096.25;12210172;19;20010;-82
2023/01/03 17:22:03;;;;;;;11.45;3.97;;;;;;;8.57;100.00;101106.41;12183802;19;20062;-81
2023/01/03 17:26:09;;;;;;;8.50;3.75;;;;;;;8.66;100.00;101102.44;12202945;19;20010;-82
2023/01/03 17:30:17;;;;;;;8.70;4.50;;;;;;;8.74;100.00;101104.13;12208089;19;20014;-81
2023/01/03 17:34:26;;;;;;;8.60;4.18;;;;;;;8.79;100.00;101096.13;12182376;19;20550;-81
2023/01/03 17:38:31;;;;;;;9.40;4.68;;;;;;;8.81;100.00;101101.44;12209521;19;20105;-81
2023/01/03 17:42:32;;;;;;;10.13;4.57;;;;;;;8.80;100.00;101103.31;12182084;19;20030;-81
2023/01/03 17:50:56;;;;;;;10.10;4.82;;;;;;;8.62;100.00;101087.41;12205530;19;20015;-81
2023/01/03 17:55:02;;;;;;;9.43;4.90;;;;;;;8.45;100.00;101097.06;12182077;19;20370;-81
2023/01/03 17:59:04;;;;;;;9.45;4.75;;;;;;;8.34;100.00;101089.38;12203640;19;20119;-81
2023/01/03 18:03:06;;;;;;;10.85;5.57;;;;;;;8.29;100.00;101087.22;12203495;19;20082;-80
2023/01/03 18:07:08;;;;;;;10.30;4.80;;;;;;;8.25;100.00;101091.44;12183186;19;20006;-81
2023/01/03 18:11:15;;;;;;;8.60;4.60;;;;;;;8.28;100.00;101102.03;12210957;19;20007;-81
2023/01/03 18:15:20;;;;;;;12.68;5.32;;;;;;;8.35;100.00;101104.78;12211100;19;21437;-81
2023/01/03 18:19:22;;;;;;;13.13;6.13;;;;;;;8.36;100.00;101112.84;12189551;19;20007;-81
2023/01/03 18:23:29;;;;;;;10.80;5.20;;;;;;;8.29;100.00;101102.88;12212786;19;20027;-82
2023/01/03 18:27:34;;;;;;;15.02;7.47;;;;;;;8.16;100.00;101111.88;12188603;19;20010;-82
2023/01/03 18:31:35;;;;;;;10.73;5.72;;;;;;;8.06;100.00;101098.53;12210710;19;20010;-81
2023/01/03 18:35:37;;;;;;;9.50;5.28;;;;;;;7.95;100.00;101107.31;12210590;19;20528;-80
2023/01/03 18:39:39;;;;;;;9.43;5.10;;;;;;;7.86;100.00;101098.38;12189585;19;20007;-81
2023/01/03 18:43:41;;;;;;;11.20;5.00;;;;;;;7.74;100.00;101106.31;12207832;19;20073;-81
2023/01/03 18:47:42;;;;;;;13.35;5.18;;;;;;;7.66;100.00;101103.72;12200719;19;20691;-82
2023/01/03 18:51:48;;;;;;;10.18;4.60;;;;;;;7.61;100.00;101102.63;12182527;19;20054;-81
2023/01/03 18:55:50;;;;;;;9.85;4.78;;;;;;;7.56;100.00;101105.97;12204830;19;20009;-81
2023/01/03 18:59:53;;;;;;;10.52;4.72;;;;;;;7.48;100.00;101108.84;12205236;19;20011;-81
2023/01/03 19:03:54;;;;;;;9.02;5.00;;;;;;;7.43;100.00;101114.91;12182056;19;20014;-81
2023/01/03 19:07:57;;;;;;;10.63;4.90;;;;;;;7.38;100.00;101109.19;12204954;19;20010;-81
2023/01/03 19:11:59;;;;;;;15.23;6.57;;;;;;;7.32;100.00;101120.97;12201182;19;20015;-80
2023/01/03 19:16:01;;;;;;;17.27;6.93;;;;;;;7.29;100.00;101115.88;12184263;19;20034;-81
2023/01/03 19:20:03;;;;;;;15.98;6.47;;;;;;;7.26;100.00;101114.38;12203665;19;20007;-81
2023/01/03 19:24:24;;;;;;;11.45;5.30;;;;;;;7.23;100.00;101105.69;12207073;19;20006;-82
2023/01/03 19:28:27;;;;;;;13.48;6.43;;;;;;;7.19;100.00;101099.72;12184100;19;20006;-81
2023/01/03 19:32:30;;;;;;;8.90;5.03;;;;;;;7.18;100.00;101099.94;12204745;19;20006;-81
2023/01/03 19:36:32;;;;;;;10.50;5.78;;;;;;;7.17;100.00;101096.34;12183612;19;20002;-81
2023/01/03 19:40:38;;;;;;;10.60;5.22;;;;;;;7.13;100.00;101100.50;12208464;19;21272;-82
2023/01/03 19:44:40;;;;;;;7.70;4.63;;;;;;;7.10;100.00;101095.41;12202044;19;20010;-82
2023/01/03 19:48:45;;;;;;;10.68;5.03;;;;;;;7.06;100.00;101094.13;12182654;19;20003;-81
2023/01/03 19:52:48;;;;;;;10.35;5.05;;;;;;;7.06;100.00;101096.88;12205739;19;20007;-81
2023/01/03 19:56:56;;;;;;;12.07;5.43;;;;;;;7.01;100.00;101094.69;12209470;19;20010;-81
2023/01/03 20:00:59;;;;;;;7.88;4.13;;;;;;;6.98;100.00;101089.59;12182489;19;20003;-82
2023/01/03 20:05:00;;;;;;;11.55;5.80;;;;;;;6.96;100.00;101082.63;12203716;19;20477;-81
2023/01/03 20:09:02;;;;;;;10.20;4.87;;;;;;;6.98;100.00;101083.28;12201776;19;20031;-82